Gordon, Texas
Current Conditions -  °F | °C
As of 2:15 PM on Sunday 23 Nov 2014 (Local Time) from KSEP Reporting Station
Clear Clear  
Wind Chill: 73°   Ceiling: Unl
Heat Index: 73°   Visibility: 10mi
Dew Point: 38°   Wind: 17mph
Humidity: 28%   Direction: 260°W
Pressure: 29.49"   Gusts: 23mph
Location:  32.55°N, 98.37°W
Report Text: KSEP 232015Z AUTO 26015G20KT 10SM CLR 23/03 A2949 RMK AO2 T02300033
Loading
Personal Weather Stations






























Interactive Weather Map New forecast layout! Learn more

10-Day Weather Forecast

Advertisements
Track Severe Weather on mobile